Time;durP1;ratioP1;P1;durP2;ratioP2;P2;SDS_P1;SDS_P2;PMS_P1;PMS_P2;Temp;Humidity;BMP_temperature;BMP_pressure;BME280_temperature;BME280_humidity;BME280_pressure;Samples;Min_cycle;Max_cycle;Signal;HPM_P1;HPM_P2
2023/03/16 00:01:07;;;;;;;;;;;1.57;10.19;;;;;;2671197;76;20429;-91
2023/03/16 00:04:38;;;;;;;;;;;1.55;10.46;;;;;;2669971;76;20461;-90
2023/03/16 00:08:06;;;;;;;;;;;1.51;10.43;;;;;;2669035;76;20467;-91
2023/03/16 00:11:34;;;;;;;;;;;1.46;10.08;;;;;;2670271;76;20449;-90
2023/03/16 00:15:07;;;;;;;;;;;1.36;9.47;;;;;;2671151;76;20494;-91
2023/03/16 00:18:37;;;;;;;;;;;1.24;9.01;;;;;;2670186;76;20457;-90
2023/03/16 00:22:02;;;;;;;;;;;1.13;8.92;;;;;;2670224;76;20466;-90
2023/03/16 00:25:32;;;;;;;;;;;1.11;9.07;;;;;;2670444;76;20641;-91
2023/03/16 00:29:00;;;;;;;;;;;1.06;8.94;;;;;;2669801;76;20448;-89
2023/03/16 00:32:28;;;;;;;;;;;1.16;9.29;;;;;;2670341;76;20889;-89
2023/03/16 00:36:08;;;;;;;;;;;1.31;12.13;;;;;;2670392;76;20933;-89
2023/03/16 00:39:26;;;;;;;;;;;1.29;12.02;;;;;;2669670;76;20861;-89
2023/03/16 00:42:54;;;;;;;;;;;1.17;11.02;;;;;;2670877;76;20721;-90
2023/03/16 00:46:25;;;;;;;;;;;1.11;10.24;;;;;;2669550;76;20440;-90
2023/03/16 00:49:54;;;;;;;;;;;0.94;9.67;;;;;;2670068;76;21183;-89
2023/03/16 00:53:22;;;;;;;;;;;0.83;9.12;;;;;;2670698;76;20425;-90
2023/03/16 00:56:50;;;;;;;;;;;0.73;8.84;;;;;;2669439;76;20907;-90
2023/03/16 01:00:20;;;;;;;;;;;0.65;8.61;;;;;;2669757;76;20912;-89
2023/03/16 01:03:48;;;;;;;;;;;0.57;8.76;;;;;;2670055;76;20448;-90
2023/03/16 01:07:16;;;;;;;;;;;0.55;8.95;;;;;;2669776;76;20485;-88
2023/03/16 01:10:44;;;;;;;;;;;0.52;8.95;;;;;;2669190;76;20825;-89
2023/03/16 01:14:12;;;;;;;;;;;0.50;8.98;;;;;;2668245;76;20370;-89
2023/03/16 01:17:40;;;;;;;;;;;0.45;8.87;;;;;;2669642;76;20453;-89
2023/03/16 01:21:08;;;;;;;;;;;0.42;9.00;;;;;;2669387;76;20950;-89
2023/03/16 01:24:36;;;;;;;;;;;0.39;8.92;;;;;;2669972;76;20635;-89
2023/03/16 01:28:04;;;;;;;;;;;0.36;8.72;;;;;;2669490;76;20346;-88
2023/03/16 01:31:32;;;;;;;;;;;0.32;8.55;;;;;;2670643;76;20473;-89
2023/03/16 01:35:01;;;;;;;;;;;0.29;8.48;;;;;;2670309;76;20503;-89
2023/03/16 01:38:29;;;;;;;;;;;0.23;8.26;;;;;;2670349;76;20319;-89
2023/03/16 01:41:57;;;;;;;;;;;0.21;8.17;;;;;;2670792;76;20567;-89
2023/03/16 01:45:25;;;;;;;;;;;0.20;8.21;;;;;;2670381;76;20428;-89
2023/03/16 01:48:53;;;;;;;;;;;0.17;8.24;;;;;;2669852;76;20419;-89
2023/03/16 01:52:21;;;;;;;;;;;0.17;8.21;;;;;;2670941;76;20425;-89
2023/03/16 01:55:49;;;;;;;;;;;0.14;8.26;;;;;;2669707;76;20321;-89
2023/03/16 01:59:17;;;;;;;;;;;0.07;8.61;;;;;;2670219;76;20413;-89
2023/03/16 02:02:47;;;;;;;;;;;0.09;8.40;;;;;;2670578;76;20436;-89
2023/03/16 02:06:25;;;;;;;;;;;0.05;8.04;;;;;;2670402;76;20452;-88
2023/03/16 02:09:53;;;;;;;;;;;0.05;7.82;;;;;;2670229;76;20440;-89
2023/03/16 02:13:21;;;;;;;;;;;0.04;7.66;;;;;;2671131;76;20453;-88
2023/03/16 02:16:49;;;;;;;;;;;-0.02;7.42;;;;;;2670051;76;20449;-89
2023/03/16 02:20:17;;;;;;;;;;;-0.02;7.21;;;;;;2669928;76;20452;-89
2023/03/16 02:23:46;;;;;;;;;;;-0.08;7.08;;;;;;2669338;76;20422;-89
2023/03/16 02:27:14;;;;;;;;;;;-0.06;7.17;;;;;;2668544;76;20443;-89
2023/03/16 02:30:42;;;;;;;;;;;0.02;7.67;;;;;;2669727;76;20459;-90
2023/03/16 02:34:12;;;;;;;;;;;0.06;8.17;;;;;;2671149;76;20464;-89
2023/03/16 02:37:40;;;;;;;;;;;0.05;8.16;;;;;;2672449;76;20895;-89
2023/03/16 02:41:09;;;;;;;;;;;0.10;8.74;;;;;;2669790;76;20323;-89
2023/03/16 02:44:39;;;;;;;;;;;0.27;9.57;;;;;;2669489;76;20451;-91
2023/03/16 02:48:07;;;;;;;;;;;0.28;9.56;;;;;;2669168;76;20426;-91
2023/03/16 02:51:35;;;;;;;;;;;0.31;9.86;;;;;;2669376;76;20443;-93
2023/03/16 02:55:03;;;;;;;;;;;0.32;9.79;;;;;;2669209;76;20431;-93
2023/03/16 02:58:31;;;;;;;;;;;0.23;8.88;;;;;;2668759;76;20471;-91
2023/03/16 03:02:04;;;;;;;;;;;0.14;8.17;;;;;;2668989;76;20534;-92
2023/03/16 03:05:32;;;;;;;;;;;0.06;7.53;;;;;;2669460;76;20458;-92
2023/03/16 03:09:01;;;;;;;;;;;0.02;7.35;;;;;;2668297;76;20414;-93
2023/03/16 03:12:32;;;;;;;;;;;-0.02;7.26;;;;;;2669472;76;20830;-92
2023/03/16 03:16:00;;;;;;;;;;;-0.09;7.19;;;;;;2669142;76;20459;-91
2023/03/16 03:19:28;;;;;;;;;;;-0.11;7.00;;;;;;2668803;76;20999;-92
2023/03/16 03:22:56;;;;;;;;;;;-0.12;7.06;;;;;;2669344;76;20344;-92
2023/03/16 03:26:24;;;;;;;;;;;-0.19;6.95;;;;;;2666992;76;20394;-92
2023/03/16 03:29:53;;;;;;;;;;;-0.21;6.93;;;;;;2668215;76;20494;-90
2023/03/16 03:33:26;;;;;;;;;;;-0.23;6.75;;;;;;2670184;76;20939;-92
2023/03/16 03:36:52;;;;;;;;;;;-0.29;6.62;;;;;;2669127;76;20448;-92
2023/03/16 03:40:20;;;;;;;;;;;-0.30;6.36;;;;;;2669385;76;20425;-91
2023/03/16 03:43:48;;;;;;;;;;;-0.35;6.30;;;;;;2669500;76;20447;-91
2023/03/16 03:47:17;;;;;;;;;;;-0.36;6.21;;;;;;2668867;76;20900;-90
2023/03/16 03:50:45;;;;;;;;;;;-0.41;5.97;;;;;;2669737;76;20923;-89
2023/03/16 03:54:13;;;;;;;;;;;-0.45;5.73;;;;;;2670352;76;20494;-91
2023/03/16 03:57:43;;;;;;;;;;;-0.47;5.80;;;;;;2668419;76;20481;-91
2023/03/16 04:01:22;;;;;;;;;;;-0.49;5.80;;;;;;2669257;76;20447;-92
2023/03/16 04:04:50;;;;;;;;;;;-0.51;5.99;;;;;;2669604;76;20461;-91
2023/03/16 04:08:18;;;;;;;;;;;-0.50;5.96;;;;;;2668780;76;20485;-92
2023/03/16 04:11:46;;;;;;;;;;;-0.52;5.80;;;;;;2668797;76;20469;-91
2023/03/16 04:15:14;;;;;;;;;;;-0.54;5.62;;;;;;2669766;76;20746;-92
2023/03/16 04:18:44;;;;;;;;;;;-0.58;5.67;;;;;;2667652;76;20762;-91
2023/03/16 04:22:12;;;;;;;;;;;-0.57;5.59;;;;;;2669264;76;20490;-91
2023/03/16 04:25:41;;;;;;;;;;;-0.58;5.66;;;;;;2668833;76;20456;-91
2023/03/16 04:29:09;;;;;;;;;;;-0.61;5.59;;;;;;2669467;76;20480;-90
2023/03/16 04:32:37;;;;;;;;;;;-0.64;5.65;;;;;;2669566;76;20464;-91
2023/03/16 04:36:05;;;;;;;;;;;-0.64;5.60;;;;;;2668119;76;20479;-92
2023/03/16 04:39:37;;;;;;;;;;;-0.66;5.57;;;;;;2668110;76;20441;-91
2023/03/16 04:43:08;;;;;;;;;;;-0.66;5.51;;;;;;2669247;76;20477;-91
2023/03/16 04:46:36;;;;;;;;;;;-0.68;5.44;;;;;;2669846;76;20419;-92
2023/03/16 04:50:04;;;;;;;;;;;-0.66;5.60;;;;;;2668186;76;20438;-92
2023/03/16 04:53:32;;;;;;;;;;;-0.62;5.92;;;;;;2670161;76;20320;-91
2023/03/16 04:57:02;;;;;;;;;;;-0.64;6.26;;;;;;2669927;76;20477;-91
2023/03/16 05:00:30;;;;;;;;;;;-0.66;6.32;;;;;;2669831;76;20451;-91
2023/03/16 05:03:59;;;;;;;;;;;-0.69;6.01;;;;;;2670115;76;20496;-91
2023/03/16 05:07:27;;;;;;;;;;;-0.73;5.69;;;;;;2668534;76;20456;-91
2023/03/16 05:10:55;;;;;;;;;;;-0.75;5.96;;;;;;2669940;76;20483;-91
2023/03/16 05:14:23;;;;;;;;;;;-0.76;6.42;;;;;;2669995;76;20352;-91
2023/03/16 05:17:51;;;;;;;;;;;-0.73;6.87;;;;;;2669171;76;20353;-91
2023/03/16 05:21:20;;;;;;;;;;;-0.67;7.57;;;;;;2669150;76;20441;-91
2023/03/16 05:24:48;;;;;;;;;;;-0.62;7.73;;;;;;2669176;76;20626;-91
2023/03/16 05:28:16;;;;;;;;;;;-0.52;8.15;;;;;;2668593;76;20443;-90
2023/03/16 05:31:46;;;;;;;;;;;-0.41;8.85;;;;;;2668304;76;21323;-91
2023/03/16 05:35:29;;;;;;;;;;;-0.31;9.43;;;;;;2669516;76;20477;-91
2023/03/16 05:39:07;;;;;;;;;;;-0.19;9.77;;;;;;2668778;76;20493;-92
2023/03/16 05:42:32;;;;;;;;;;;-0.07;9.82;;;;;;2668028;76;20378;-91
2023/03/16 05:46:06;;;;;;;;;;;0.03;9.90;;;;;;2666053;76;20451;-93
2023/03/16 05:49:31;;;;;;;;;;;0.14;10.22;;;;;;2667897;76;20471;-91
2023/03/16 05:52:59;;;;;;;;;;;0.20;10.34;;;;;;2667612;76;20506;-91
2023/03/16 05:56:27;;;;;;;;;;;0.30;10.43;;;;;;2667370;76;20370;-89
2023/03/16 05:59:55;;;;;;;;;;;0.43;10.47;;;;;;2666265;76;20477;-91
2023/03/16 06:03:29;;;;;;;;;;;0.61;10.62;;;;;;2668098;76;20448;-91
2023/03/16 06:06:57;;;;;;;;;;;0.74;10.60;;;;;;2664327;76;20426;-91
2023/03/16 06:10:27;;;;;;;;;;;0.84;10.74;;;;;;2667474;76;21056;-91
2023/03/16 06:13:58;;;;;;;;;;;0.96;10.92;;;;;;2667894;76;20769;-91
2023/03/16 06:17:36;;;;;;;;;;;1.09;11.36;;;;;;2665757;76;20979;-91
2023/03/16 06:21:08;;;;;;;;;;;1.21;11.62;;;;;;2666569;76;20453;-90
2023/03/16 06:24:38;;;;;;;;;;;1.28;11.78;;;;;;2666549;76;20482;-90
2023/03/16 06:28:14;;;;;;;;;;;1.40;11.97;;;;;;2667796;76;20439;-90
2023/03/16 06:31:46;;;;;;;;;;;1.49;12.17;;;;;;2667668;76;20506;-92
2023/03/16 06:35:14;;;;;;;;;;;1.60;12.44;;;;;;2667109;76;20440;-92
2023/03/16 06:38:42;;;;;;;;;;;1.61;12.54;;;;;;2667878;76;20531;-92
2023/03/16 06:42:13;;;;;;;;;;;1.64;12.65;;;;;;2668775;76;20446;-93
2023/03/16 06:45:47;;;;;;;;;;;1.78;12.94;;;;;;2668298;76;20486;-92
2023/03/16 06:49:14;;;;;;;;;;;1.87;13.13;;;;;;2667174;76;20450;-92
2023/03/16 06:52:42;;;;;;;;;;;1.98;13.26;;;;;;2667366;76;20443;-92
2023/03/16 06:56:12;;;;;;;;;;;2.11;13.32;;;;;;2664892;76;20906;-92
2023/03/16 06:59:43;;;;;;;;;;;2.13;13.43;;;;;;2664827;76;20462;-92
2023/03/16 07:03:12;;;;;;;;;;;2.09;13.75;;;;;;2667550;76;20465;-92
2023/03/16 07:06:40;;;;;;;;;;;2.21;14.19;;;;;;2668064;76;20658;-93
2023/03/16 07:10:08;;;;;;;;;;;2.24;14.47;;;;;;2668025;76;20864;-92
2023/03/16 07:13:37;;;;;;;;;;;2.42;14.78;;;;;;2667221;76;20476;-92
2023/03/16 07:17:08;;;;;;;;;;;2.58;14.82;;;;;;2668248;76;20490;-93
2023/03/16 07:20:36;;;;;;;;;;;2.43;15.22;;;;;;2666729;76;20484;-92
2023/03/16 07:24:04;;;;;;;;;;;2.65;15.42;;;;;;2668607;76;20325;-91
2023/03/16 07:27:32;;;;;;;;;;;2.73;15.15;;;;;;2669636;76;20531;-92
2023/03/16 07:31:03;;;;;;;;;;;2.87;15.19;;;;;;2669251;76;20705;-92
2023/03/16 07:34:32;;;;;;;;;;;2.86;15.18;;;;;;2667826;76;20503;-92
2023/03/16 07:38:01;;;;;;;;;;;2.75;15.00;;;;;;2668406;76;20462;-92
2023/03/16 07:41:34;;;;;;;;;;;2.86;15.02;;;;;;2668088;76;20908;-92
2023/03/16 07:45:01;;;;;;;;;;;3.05;15.03;;;;;;2668318;76;20497;-93
2023/03/16 07:48:29;;;;;;;;;;;3.02;14.80;;;;;;2668683;76;21066;-92
2023/03/16 07:51:57;;;;;;;;;;;3.11;14.81;;;;;;2668445;76;20511;-91
2023/03/16 07:55:25;;;;;;;;;;;3.18;14.73;;;;;;2668605;76;20426;-92
2023/03/16 07:58:53;;;;;;;;;;;3.26;14.82;;;;;;2667629;76;20887;-92
2023/03/16 08:02:22;;;;;;;;;;;3.26;14.86;;;;;;2667156;76;20499;-92
2023/03/16 08:05:50;;;;;;;;;;;3.42;14.74;;;;;;2667454;76;20474;-92
2023/03/16 08:09:18;;;;;;;;;;;3.77;14.62;;;;;;2667857;76;20495;-92
2023/03/16 08:12:46;;;;;;;;;;;4.16;14.14;;;;;;2668356;76;20476;-93
2023/03/16 08:16:15;;;;;;;;;;;4.69;13.30;;;;;;2668585;76;20983;-92
2023/03/16 08:19:43;;;;;;;;;;;5.07;12.67;;;;;;2667616;76;20426;-93
2023/03/16 08:23:12;;;;;;;;;;;5.37;12.07;;;;;;2668369;76;20636;-93
2023/03/16 08:26:40;;;;;;;;;;;5.07;12.10;;;;;;2669224;76;20543;-93
2023/03/16 08:30:10;;;;;;;;;;;4.93;13.05;;;;;;2666231;76;20478;-93
2023/03/16 08:33:38;;;;;;;;;;;5.18;12.57;;;;;;2666635;76;20340;-93
2023/03/16 08:37:06;;;;;;;;;;;5.25;12.37;;;;;;2667702;76;20909;-93
2023/03/16 08:40:34;;;;;;;;;;;5.55;11.52;;;;;;2667822;76;20352;-93
2023/03/16 08:44:03;;;;;;;;;;;5.89;11.31;;;;;;2669043;76;20455;-93
2023/03/16 08:47:31;;;;;;;;;;;6.11;10.34;;;;;;2668042;76;20438;-93
2023/03/16 08:51:00;;;;;;;;;;;6.19;10.22;;;;;;2668818;76;20827;-88
2023/03/16 08:54:35;;;;;;;;;;;6.08;9.69;;;;;;2667710;76;20443;-89
2023/03/16 08:58:00;;;;;;;;;;;6.27;10.48;;;;;;2666815;76;20444;-89
2023/03/16 09:01:28;;;;;;;;;;;6.45;10.24;;;;;;2668258;76;20480;-88
2023/03/16 09:04:57;;;;;;;;;;;6.65;10.51;;;;;;2666129;76;21107;-90
2023/03/16 09:08:25;;;;;;;;;;;6.87;10.14;;;;;;2665861;76;20460;-89
2023/03/16 09:11:53;;;;;;;;;;;6.99;9.69;;;;;;2667107;76;20483;-89
2023/03/16 09:15:22;;;;;;;;;;;7.19;10.12;;;;;;2667754;76;20694;-88
2023/03/16 09:18:50;;;;;;;;;;;7.34;10.17;;;;;;2668243;76;20458;-90
2023/03/16 09:22:18;;;;;;;;;;;7.69;9.72;;;;;;2667914;76;20481;-90
2023/03/16 09:25:46;;;;;;;;;;;8.11;9.87;;;;;;2666639;76;20451;-89
2023/03/16 09:29:15;;;;;;;;;;;8.17;9.50;;;;;;2666993;76;20470;-90
2023/03/16 09:32:44;;;;;;;;;;;7.47;6.62;;;;;;2668717;76;20494;-89
2023/03/16 09:36:12;;;;;;;;;;;6.85;7.43;;;;;;2668047;76;21596;-90
2023/03/16 09:39:40;;;;;;;;;;;6.55;7.66;;;;;;2667597;76;20447;-87
2023/03/16 09:43:09;;;;;;;;;;;6.42;8.72;;;;;;2668886;76;20454;-87
2023/03/16 09:46:37;;;;;;;;;;;6.31;9.57;;;;;;2668625;76;20421;-87
2023/03/16 09:50:05;;;;;;;;;;;6.19;9.43;;;;;;2669453;76;20606;-89
2023/03/16 09:53:34;;;;;;;;;;;6.41;10.24;;;;;;2667363;76;20451;-88
2023/03/16 09:57:02;;;;;;;;;;;6.33;9.84;;;;;;2668807;76;20888;-89
2023/03/16 10:08:02;;;;;;;;;;;6.33;10.66;;;;;;2666946;76;20442;-87
2023/03/16 10:11:31;;;;;;;;;;;6.41;10.38;;;;;;2668489;76;20474;-87
2023/03/16 10:14:59;;;;;;;;;;;6.65;11.17;;;;;;2668796;76;20447;-89
2023/03/16 10:18:27;;;;;;;;;;;6.68;10.49;;;;;;2668202;76;20978;-90
2023/03/16 10:21:55;;;;;;;;;;;6.44;8.47;;;;;;2668245;76;20932;-89
2023/03/16 10:25:23;;;;;;;;;;;6.38;7.59;;;;;;2669069;76;20928;-90
2023/03/16 10:28:51;;;;;;;;;;;6.40;7.94;;;;;;2669429;76;20971;-88
2023/03/16 10:32:19;;;;;;;;;;;6.34;7.98;;;;;;2670597;76;20454;-88
2023/03/16 10:35:48;;;;;;;;;;;6.55;8.65;;;;;;2669741;76;20442;-88
2023/03/16 10:39:16;;;;;;;;;;;6.72;9.21;;;;;;2667857;76;20455;-87
2023/03/16 10:42:45;;;;;;;;;;;6.72;8.61;;;;;;2668494;76;22490;-89
2023/03/16 10:46:13;;;;;;;;;;;6.95;9.53;;;;;;2668949;76;20478;-89
2023/03/16 10:49:45;;;;;;;;;;;7.12;9.80;;;;;;2667499;76;20451;-90
2023/03/16 10:53:11;;;;;;;;;;;7.22;9.48;;;;;;2669045;76;20837;-90
2023/03/16 10:56:39;;;;;;;;;;;7.27;9.20;;;;;;2668396;76;20319;-90
2023/03/16 11:00:13;;;;;;;;;;;7.11;8.14;;;;;;2667407;76;20462;-87
2023/03/16 11:03:40;;;;;;;;;;;7.09;8.50;;;;;;2669036;76;20442;-86
2023/03/16 11:07:09;;;;;;;;;;;6.99;7.89;;;;;;2666254;76;20455;-89
2023/03/16 11:10:38;;;;;;;;;;;7.02;8.09;;;;;;2668620;76;20757;-89
2023/03/16 11:14:06;;;;;;;;;;;7.01;7.56;;;;;;2668410;76;20320;-88
2023/03/16 11:17:34;;;;;;;;;;;6.97;7.57;;;;;;2667976;76;20454;-87
2023/03/16 11:21:02;;;;;;;;;;;6.93;6.83;;;;;;2669078;76;20454;-90
2023/03/16 11:24:30;;;;;;;;;;;6.86;6.79;;;;;;2668393;76;20450;-87
2023/03/16 11:27:58;;;;;;;;;;;6.68;6.73;;;;;;2668497;76;20561;-88
2023/03/16 11:31:26;;;;;;;;;;;6.80;6.99;;;;;;2667978;76;20927;-89
2023/03/16 11:34:54;;;;;;;;;;;6.93;7.31;;;;;;2667147;76;20977;-89
2023/03/16 11:38:22;;;;;;;;;;;6.96;7.41;;;;;;2666866;76;20426;-90
2023/03/16 11:41:50;;;;;;;;;;;7.05;7.43;;;;;;2669654;76;21016;-90
2023/03/16 11:45:18;;;;;;;;;;;7.22;7.53;;;;;;2670008;76;20441;-90
2023/03/16 11:48:46;;;;;;;;;;;7.25;7.29;;;;;;2668164;76;20982;-90
2023/03/16 11:52:16;;;;;;;;;;;7.24;6.65;;;;;;2669652;76;20879;-90
2023/03/16 11:55:45;;;;;;;;;;;7.29;6.95;;;;;;2669972;76;20615;-89
2023/03/16 11:59:13;;;;;;;;;;;7.27;6.94;;;;;;2670836;76;20431;-90
2023/03/16 12:02:42;;;;;;;;;;;7.39;7.18;;;;;;2669622;76;20431;-90
2023/03/16 12:06:10;;;;;;;;;;;7.54;7.54;;;;;;2670656;76;20331;-90
2023/03/16 12:09:39;;;;;;;;;;;7.75;6.91;;;;;;2669732;76;20905;-90
2023/03/16 12:13:07;;;;;;;;;;;7.77;6.42;;;;;;2668453;76;20434;-90
2023/03/16 12:16:35;;;;;;;;;;;7.96;7.18;;;;;;2668918;76;20504;-90
2023/03/16 12:20:04;;;;;;;;;;;7.84;5.92;;;;;;2669106;76;20446;-90
2023/03/16 12:23:33;;;;;;;;;;;7.89;5.83;;;;;;2670177;76;20439;-91
2023/03/16 12:27:01;;;;;;;;;;;7.84;4.94;;;;;;2667743;76;20444;-90
2023/03/16 12:30:29;;;;;;;;;;;7.88;5.14;;;;;;2669192;76;20442;-89
2023/03/16 12:33:58;;;;;;;;;;;7.97;5.27;;;;;;2667518;76;20449;-90
2023/03/16 12:37:26;;;;;;;;;;;8.06;5.67;;;;;;2667835;76;20485;-89
2023/03/16 12:40:54;;;;;;;;;;;8.20;6.53;;;;;;2668540;76;20445;-89
2023/03/16 12:44:22;;;;;;;;;;;8.22;5.31;;;;;;2669703;76;20455;-89
2023/03/16 12:47:51;;;;;;;;;;;8.24;4.27;;;;;;2668247;76;20727;-88
2023/03/16 12:51:19;;;;;;;;;;;8.39;5.14;;;;;;2667666;76;20875;-88
2023/03/16 12:54:47;;;;;;;;;;;8.43;4.59;;;;;;2664569;76;20693;-88
2023/03/16 12:58:15;;;;;;;;;;;8.43;4.61;;;;;;2666642;76;20577;-88
2023/03/16 13:01:43;;;;;;;;;;;8.33;4.66;;;;;;2668286;76;20481;-88
2023/03/16 13:05:11;;;;;;;;;;;8.48;4.69;;;;;;2667921;76;20923;-88
2023/03/16 13:08:40;;;;;;;;;;;8.48;4.06;;;;;;2668264;76;21071;-88
2023/03/16 13:12:11;;;;;;;;;;;8.52;4.35;;;;;;2667932;76;20963;-88
2023/03/16 13:15:39;;;;;;;;;;;8.59;4.35;;;;;;2668743;76;20337;-88
2023/03/16 13:19:07;;;;;;;;;;;8.63;3.95;;;;;;2668245;76;20470;-88
2023/03/16 13:22:37;;;;;;;;;;;8.61;2.60;;;;;;2666176;76;21008;-88
2023/03/16 13:26:05;;;;;;;;;;;8.59;1.55;;;;;;2667424;76;20450;-88
2023/03/16 13:29:33;;;;;;;;;;;8.67;1.81;;;;;;2667340;76;20441;-88
2023/03/16 13:33:01;;;;;;;;;;;8.71;1.30;;;;;;2667845;76;20467;-88
2023/03/16 13:36:29;;;;;;;;;;;8.73;2.07;;;;;;2667305;76;21757;-87
2023/03/16 13:39:58;;;;;;;;;;;8.80;1.35;;;;;;2668108;76;20476;-89
2023/03/16 13:43:31;;;;;;;;;;;8.83;1.06;;;;;;2665474;76;20473;-89
2023/03/16 13:46:59;;;;;;;;;;;8.83;0.88;;;;;;2666416;76;20467;-89
2023/03/16 13:50:29;;;;;;;;;;;8.91;1.92;;;;;;2666690;76;20459;-89
2023/03/16 13:53:58;;;;;;;;;;;8.96;1.53;;;;;;2668356;76;20939;-88
2023/03/16 13:57:26;;;;;;;;;;;9.04;1.42;;;;;;2667275;76;20447;-89
2023/03/16 14:00:54;;;;;;;;;;;9.07;1.44;;;;;;2668228;76;20450;-89
2023/03/16 14:04:23;;;;;;;;;;;9.19;1.78;;;;;;2668658;76;20482;-88
2023/03/16 14:07:51;;;;;;;;;;;9.18;1.10;;;;;;2667989;76;20995;-89
2023/03/16 14:11:19;;;;;;;;;;;9.18;0.47;;;;;;2668818;76;20455;-89
2023/03/16 14:14:49;;;;;;;;;;;9.25;-0.28;;;;;;2667142;76;20455;-88
2023/03/16 14:18:20;;;;;;;;;;;9.29;-0.03;;;;;;2666307;76;20513;-88
2023/03/16 14:21:47;;;;;;;;;;;9.20;-1.05;;;;;;2667811;76;20487;-88
2023/03/16 14:25:15;;;;;;;;;;;9.26;-0.71;;;;;;2668309;76;20447;-88
2023/03/16 14:28:43;;;;;;;;;;;9.32;-0.57;;;;;;2668501;76;20903;-88
2023/03/16 14:32:13;;;;;;;;;;;9.34;-1.35;;;;;;2668770;76;20495;-88
2023/03/16 14:35:41;;;;;;;;;;;9.32;-2.31;;;;;;2668755;76;20532;-88
2023/03/16 14:39:10;;;;;;;;;;;9.26;-2.43;;;;;;2667913;76;20424;-88
2023/03/16 14:42:38;;;;;;;;;;;9.26;-1.82;;;;;;2667878;76;20465;-89
2023/03/16 14:46:06;;;;;;;;;;;9.27;-2.34;;;;;;2667112;76;20464;-89
2023/03/16 14:49:35;;;;;;;;;;;9.31;-1.07;;;;;;2667528;76;20483;-88
2023/03/16 14:53:03;;;;;;;;;;;9.31;-1.96;;;;;;2668274;76;20895;-92
2023/03/16 14:56:31;;;;;;;;;;;9.38;-0.78;;;;;;2667609;76;20450;-91
2023/03/16 15:00:00;;;;;;;;;;;9.44;-1.75;;;;;;2666650;76;20426;-92
2023/03/16 15:03:33;;;;;;;;;;;9.46;-2.31;;;;;;2666864;76;20464;-91
2023/03/16 15:07:01;;;;;;;;;;;9.64;-3.34;;;;;;2666693;76;21001;-91
2023/03/16 15:10:29;;;;;;;;;;;9.75;-3.66;;;;;;2667247;76;20529;-92
2023/03/16 15:14:13;;;;;;;;;;;9.81;-3.33;;;;;;2667009;76;20480;-92
2023/03/16 15:17:33;;;;;;;;;;;9.83;-4.59;;;;;;2667459;76;20452;-91
2023/03/16 15:21:06;;;;;;;;;;;10.08;-3.81;;;;;;2667321;76;20462;-91
2023/03/16 15:24:33;;;;;;;;;;;11.81;-4.07;;;;;;2665035;76;20738;-88
2023/03/16 15:28:02;;;;;;;;;;;16.47;114.98;;;;;;2665663;76;20461;-88
2023/03/16 15:31:49;;;;;;;;;;;19.42;110.34;;;;;;2665227;76;20441;-91
2023/03/16 15:39:00;;;;;;;;;;;23.38;100.73;;;;;;2666917;76;20467;-92
2023/03/16 15:42:28;;;;;;;;;;;23.46;97.98;;;;;;2666932;76;20784;-89
2023/03/16 15:45:56;;;;;;;;;;;23.95;98.16;;;;;;2667407;76;20478;-86
2023/03/16 15:49:24;;;;;;;;;;;23.24;96.34;;;;;;2666195;76;20443;-90
2023/03/16 15:52:52;;;;;;;;;;;20.56;95.31;;;;;;2667560;76;20434;-91
2023/03/16 15:56:23;;;;;;;;;;;19.57;96.20;;;;;;2667314;76;20999;-90
2023/03/16 15:59:53;;;;;;;;;;;17.82;98.34;;;;;;2668166;76;20435;-90
2023/03/16 16:03:35;;;;;;;;;;;15.58;99.60;;;;;;2669227;76;20345;-93
2023/03/16 16:07:13;;;;;;;;;;;14.30;102.20;;;;;;2668173;76;20472;-90
2023/03/16 16:10:39;;;;;;;;;;;13.45;103.25;;;;;;2668507;76;20430;-91
2023/03/16 16:14:06;;;;;;;;;;;13.00;104.50;;;;;;2667901;76;20506;-90
2023/03/16 16:17:42;;;;;;;;;;;12.10;106.34;;;;;;2666285;76;21077;-87
2023/03/16 16:25:15;;;;;;;;;;;11.07;110.89;;;;;;2667762;76;20971;-88
2023/03/16 16:28:43;;;;;;;;;;;10.72;112.27;;;;;;2666970;76;20446;-89
2023/03/16 16:32:11;;;;;;;;;;;10.46;113.19;;;;;;2665565;76;20476;-92
2023/03/16 16:35:40;;;;;;;;;;;10.24;114.38;;;;;;2668257;76;20463;-90
2023/03/16 16:39:08;;;;;;;;;;;10.04;115.15;;;;;;2667687;76;20972;-90
2023/03/16 16:42:37;;;;;;;;;;;9.78;116.73;;;;;;2667310;76;20433;-87
2023/03/16 16:46:05;;;;;;;;;;;9.47;116.18;;;;;;2667861;76;20966;-88
2023/03/16 16:49:36;;;;;;;;;;;9.22;116.84;;;;;;2668053;76;20425;-90
2023/03/16 16:53:05;;;;;;;;;;;9.00;118.18;;;;;;2669530;76;20491;-88
2023/03/16 16:56:34;;;;;;;;;;;8.73;-5.93;;;;;;2667466;76;20461;-87
2023/03/16 17:00:03;;;;;;;;;;;8.51;-5.03;;;;;;2667965;76;20491;-88
2023/03/16 17:03:32;;;;;;;;;;;8.27;-4.51;;;;;;2667562;76;20973;-88
2023/03/16 17:07:01;;;;;;;;;;;8.08;-3.94;;;;;;2666705;76;20963;-88
2023/03/16 17:10:36;;;;;;;;;;;7.89;-3.25;;;;;;2668824;76;21203;-88
2023/03/16 17:14:04;;;;;;;;;;;7.67;-2.96;;;;;;2670041;76;20426;-88
2023/03/16 17:17:32;;;;;;;;;;;7.50;-2.12;;;;;;2669595;76;20430;-88
2023/03/16 17:21:01;;;;;;;;;;;7.33;-1.29;;;;;;2668601;76;20435;-86
2023/03/16 17:24:30;;;;;;;;;;;7.25;-0.38;;;;;;2670339;76;20880;-88
2023/03/16 17:27:58;;;;;;;;;;;7.12;0.35;;;;;;2668713;76;20423;-87
2023/03/16 17:31:26;;;;;;;;;;;6.96;0.61;;;;;;2669355;76;20805;-88
2023/03/16 17:34:56;;;;;;;;;;;6.82;1.01;;;;;;2668253;76;20817;-87
2023/03/16 17:38:25;;;;;;;;;;;6.66;1.51;;;;;;2667984;76;20491;-87
2023/03/16 17:41:53;;;;;;;;;;;6.52;1.93;;;;;;2669010;76;20469;-88
2023/03/16 17:45:21;;;;;;;;;;;6.42;2.29;;;;;;2668045;76;20429;-88
2023/03/16 17:48:54;;;;;;;;;;;6.31;2.60;;;;;;2668675;76;20463;-88
2023/03/16 17:52:19;;;;;;;;;;;6.24;3.03;;;;;;2668319;76;20455;-87
2023/03/16 17:55:52;;;;;;;;;;;6.16;3.45;;;;;;2667667;76;20460;-88
2023/03/16 17:59:17;;;;;;;;;;;6.08;3.70;;;;;;2668701;76;20443;-87
2023/03/16 18:02:45;;;;;;;;;;;6.05;4.06;;;;;;2666843;76;20462;-88
2023/03/16 18:06:14;;;;;;;;;;;5.99;4.13;;;;;;2667856;76;20422;-88
2023/03/16 18:09:42;;;;;;;;;;;5.93;4.30;;;;;;2668026;76;20464;-87
2023/03/16 18:13:10;;;;;;;;;;;5.92;4.69;;;;;;2668001;76;20476;-88
2023/03/16 18:16:39;;;;;;;;;;;5.91;4.61;;;;;;2667596;76;20456;-87
2023/03/16 18:20:08;;;;;;;;;;;5.84;4.49;;;;;;2667771;76;20476;-87
2023/03/16 18:23:37;;;;;;;;;;;5.78;4.59;;;;;;2667050;76;20475;-88
2023/03/16 18:27:08;;;;;;;;;;;5.76;4.58;;;;;;2667408;76;20442;-88
2023/03/16 18:30:37;;;;;;;;;;;5.71;4.85;;;;;;2668115;76;20430;-87
2023/03/16 18:34:05;;;;;;;;;;;5.67;4.96;;;;;;2667956;76;20934;-87
2023/03/16 18:37:33;;;;;;;;;;;5.63;4.70;;;;;;2667796;76;20449;-88
2023/03/16 18:41:01;;;;;;;;;;;5.59;4.69;;;;;;2668143;76;21307;-88
2023/03/16 18:44:30;;;;;;;;;;;5.56;4.90;;;;;;2667707;76;20500;-88
2023/03/16 18:47:58;;;;;;;;;;;5.51;5.30;;;;;;2667927;76;20440;-88
2023/03/16 18:51:26;;;;;;;;;;;5.51;5.51;;;;;;2668417;76;20489;-88
2023/03/16 18:54:56;;;;;;;;;;;5.43;5.62;;;;;;2668899;76;20766;-88
2023/03/16 18:58:24;;;;;;;;;;;5.45;5.97;;;;;;2668351;76;20727;-87
2023/03/16 19:01:52;;;;;;;;;;;5.36;5.84;;;;;;2667503;76;20472;-87
2023/03/16 19:05:21;;;;;;;;;;;5.35;6.15;;;;;;2667657;76;20418;-88
2023/03/16 19:08:49;;;;;;;;;;;5.30;6.41;;;;;;2667963;76;20417;-88
2023/03/16 19:12:17;;;;;;;;;;;5.31;6.60;;;;;;2666774;76;20465;-87
2023/03/16 19:15:46;;;;;;;;;;;5.25;6.66;;;;;;2668499;76;20460;-87
2023/03/16 19:19:15;;;;;;;;;;;5.22;6.79;;;;;;2669102;76;20438;-86
2023/03/16 19:22:45;;;;;;;;;;;5.17;6.88;;;;;;2668443;76;20937;-86
2023/03/16 19:26:14;;;;;;;;;;;5.17;7.13;;;;;;2669455;76;20334;-88
2023/03/16 19:29:47;;;;;;;;;;;5.12;7.28;;;;;;2668397;76;20437;-87
2023/03/16 19:33:12;;;;;;;;;;;5.10;7.43;;;;;;2664760;76;20825;-88
2023/03/16 19:36:40;;;;;;;;;;;5.07;7.51;;;;;;2666967;76;20439;-88
2023/03/16 19:40:08;;;;;;;;;;;5.04;7.69;;;;;;2668080;76;20513;-88
2023/03/16 19:43:36;;;;;;;;;;;5.01;7.80;;;;;;2667775;76;20843;-87
2023/03/16 19:47:05;;;;;;;;;;;4.98;7.93;;;;;;2667500;76;20466;-87
2023/03/16 19:50:33;;;;;;;;;;;4.98;8.09;;;;;;2667629;76;20445;-87
2023/03/16 19:54:01;;;;;;;;;;;4.98;8.17;;;;;;2666105;76;21048;-87
2023/03/16 19:57:32;;;;;;;;;;;5.02;8.51;;;;;;2665965;76;21015;-87
2023/03/16 20:01:05;;;;;;;;;;;5.05;8.85;;;;;;2666993;76;20509;-88
2023/03/16 20:04:33;;;;;;;;;;;5.05;8.91;;;;;;2666865;76;20378;-88
2023/03/16 20:08:01;;;;;;;;;;;5.04;8.98;;;;;;2666001;76;20891;-88
2023/03/16 20:11:29;;;;;;;;;;;5.02;9.16;;;;;;2666831;76;21704;-87
2023/03/16 20:14:58;;;;;;;;;;;5.01;9.05;;;;;;2667393;76;20596;-87
2023/03/16 20:18:28;;;;;;;;;;;5.00;9.17;;;;;;2667124;76;21773;-87
2023/03/16 20:21:56;;;;;;;;;;;4.97;9.16;;;;;;2666529;76;20414;-88
2023/03/16 20:25:25;;;;;;;;;;;4.96;9.24;;;;;;2664693;76;20478;-87
2023/03/16 20:28:53;;;;;;;;;;;4.98;9.37;;;;;;2667351;76;21012;-86
2023/03/16 20:32:21;;;;;;;;;;;4.91;9.32;;;;;;2667364;76;20484;-89
2023/03/16 20:35:49;;;;;;;;;;;4.83;9.12;;;;;;2666287;76;20435;-89
2023/03/16 20:39:17;;;;;;;;;;;4.78;9.06;;;;;;2667525;76;20466;-89
2023/03/16 20:42:46;;;;;;;;;;;4.69;9.11;;;;;;2667130;76;21043;-88
2023/03/16 20:46:15;;;;;;;;;;;4.62;9.00;;;;;;2666508;76;20495;-89
2023/03/16 20:49:45;;;;;;;;;;;4.59;9.21;;;;;;2665847;76;20925;-89
2023/03/16 20:53:18;;;;;;;;;;;4.53;9.26;;;;;;2663195;76;20435;-90
2023/03/16 20:56:43;;;;;;;;;;;4.50;9.40;;;;;;2667693;76;20464;-89